CGXMF CYKF-ZZZZ
Flight info
| Callsign | CGXMF |
|---|---|
| Flight time | N/A |
| Altitude | 3000 |
| Route | CYKF/08 VFR SOUTHBOUND |
| Aircraft | F14 |
Departure
| Time | 2026-05-06 02:09 |
|---|---|
| Airport | Region of Waterloo International Airport (CYKF) |
Arrival
| Time | N/A |
|---|---|
| Airport | ZZZZ |
| Time | Latitude | Longitude | Altitude | Speed | Heading |
|---|---|---|---|---|---|
| 2026-05-06 02:02 | 43.45457 | -80.38233 | 1033 ft | 0 kts | 220° |
| 2026-05-06 02:04 | 43.45457 | -80.38234 | 1033 ft | 0 kts | 220° |
| 2026-05-06 02:04 | 43.45460 | -80.38250 | 1033 ft | 3 kts | 309° |
| 2026-05-06 02:04 | 43.45485 | -80.38280 | 1033 ft | 6 kts | 323° |
| 2026-05-06 02:05 | 43.45523 | -80.38308 | 1033 ft | 11 kts | 334° |
| 2026-05-06 02:05 | 43.45573 | -80.38341 | 1033 ft | 10 kts | 345° |
| 2026-05-06 02:05 | 43.45647 | -80.38421 | 1033 ft | 13 kts | 306° |
| 2026-05-06 02:05 | 43.45698 | -80.38510 | 1033 ft | 11 kts | 309° |
| 2026-05-06 02:06 | 43.45729 | -80.38562 | 1034 ft | 10 kts | 309° |
| 2026-05-06 02:06 | 43.45746 | -80.38622 | 1034 ft | 4 kts | 255° |
| 2026-05-06 02:06 | 43.45734 | -80.38665 | 1034 ft | 6 kts | 248° |
| 2026-05-06 02:06 | 43.45719 | -80.38710 | 1034 ft | 6 kts | 243° |
| 2026-05-06 02:07 | 43.45698 | -80.38771 | 1034 ft | 9 kts | 245° |
| 2026-05-06 02:07 | 43.45675 | -80.38861 | 1033 ft | 7 kts | 269° |
| 2026-05-06 02:07 | 43.45709 | -80.38901 | 1034 ft | 8 kts | 332° |
| 2026-05-06 02:07 | 43.45710 | -80.38902 | 1034 ft | 0 kts | 332° |
| 2026-05-06 02:08 | 43.45760 | -80.38936 | 1035 ft | 12 kts | 337° |
| 2026-05-06 02:08 | 43.45803 | -80.38931 | 1036 ft | 8 kts | 36° |
| 2026-05-06 02:08 | 43.45853 | -80.38799 | 1036 ft | 76 kts | 65° |
| 2026-05-06 02:09 | 43.46337 | -80.37359 | 1202 ft | 241 kts | 65° |
| 2026-05-06 02:09 | 43.46949 | -80.34565 | 1761 ft | 344 kts | 85° |
| 2026-05-06 02:09 | 43.46585 | -80.31792 | 1707 ft | 277 kts | 118° |
| 2026-05-06 02:09 | 43.45114 | -80.29921 | 1609 ft | 339 kts | 150° |
| 2026-05-06 02:10 | 43.42838 | -80.28232 | 2922 ft | 361 kts | 153° |
| 2026-05-06 02:10 | 43.40654 | -80.26822 | 5184 ft | 335 kts | 156° |
| 2026-05-06 02:10 | 43.38596 | -80.25628 | 7189 ft | 307 kts | 159° |
| 2026-05-06 02:10 | 43.36678 | -80.24761 | 9116 ft | 274 kts | 167° |
| 2026-05-06 02:11 | 43.34864 | -80.24215 | 10589 ft | 257 kts | 170° |
| 2026-05-06 02:11 | 43.32774 | -80.23721 | 11278 ft | 330 kts | 171° |
| 2026-05-06 02:11 | 43.30432 | -80.23350 | 11647 ft | 347 kts | 176° |
| 2026-05-06 02:11 | 43.27957 | -80.23160 | 11919 ft | 367 kts | 178° |
| 2026-05-06 02:12 | 43.25306 | -80.23032 | 11781 ft | 395 kts | 179° |
| 2026-05-06 02:12 | 43.22456 | -80.23012 | 11361 ft | 403 kts | 181° |
| 2026-05-06 02:12 | 43.19633 | -80.23161 | 11340 ft | 422 kts | 183° |
| 2026-05-06 02:12 | 43.16648 | -80.23417 | 11365 ft | 436 kts | 184° |
| 2026-05-06 02:13 | 43.13266 | -80.23803 | 11453 ft | 522 kts | 186° |
| 2026-05-06 02:13 | 43.09706 | -80.24385 | 11436 ft | 510 kts | 187° |
| 2026-05-06 02:13 | 43.06229 | -80.25039 | 11475 ft | 499 kts | 189° |
| 2026-05-06 02:13 | 43.02853 | -80.25952 | 11448 ft | 490 kts | 193° |
| 2026-05-06 02:14 | 42.99555 | -80.26992 | 11527 ft | 484 kts | 193° |
| 2026-05-06 02:14 | 42.96305 | -80.28121 | 11534 ft | 480 kts | 196° |
| 2026-05-06 02:14 | 42.95367 | -80.31055 | 11696 ft | 371 kts | 276° |
| 2026-05-06 02:14 | 42.95776 | -80.34628 | 11817 ft | 391 kts | 281° |
| 2026-05-06 02:15 | 42.97343 | -80.38231 | 11586 ft | 525 kts | 308° |
| 2026-05-06 02:15 | 42.99889 | -80.42608 | 11492 ft | 641 kts | 310° |
| 2026-05-06 02:15 | 43.03010 | -80.47196 | 11655 ft | 614 kts | 315° |
| 2026-05-06 02:15 | 43.06079 | -80.50825 | 12343 ft | 593 kts | 341° |
| 2026-05-06 02:16 | 43.10237 | -80.51507 | 10282 ft | 614 kts | 354° |
| 2026-05-06 02:16 | 43.14409 | -80.51583 | 8048 ft | 557 kts | 33° |
| 2026-05-06 02:16 | 43.16995 | -80.48454 | 7446 ft | 444 kts | 43° |
| 2026-05-06 02:16 | 43.19012 | -80.45713 | 7365 ft | 376 kts | 47° |
| 2026-05-06 02:17 | 43.21078 | -80.43673 | 6379 ft | 398 kts | 12° |
| 2026-05-06 02:17 | 43.23759 | -80.42990 | 5578 ft | 368 kts | 19° |
| 2026-05-06 02:17 | 43.26088 | -80.41862 | 4522 ft | 345 kts | 19° |
| 2026-05-06 02:17 | 43.28259 | -80.40742 | 3859 ft | 317 kts | 20° |
| 2026-05-06 02:18 | 43.30238 | -80.39805 | 3801 ft | 280 kts | 4° |
| 2026-05-06 02:18 | 43.32014 | -80.39951 | 3841 ft | 232 kts | 353° |
| 2026-05-06 02:18 | 43.33474 | -80.40149 | 3875 ft | 190 kts | 354° |
| 2026-05-06 02:18 | 43.34771 | -80.40327 | 3814 ft | 192 kts | 1° |
| 2026-05-06 02:19 | 43.36136 | -80.40327 | 3572 ft | 201 kts | 356° |
| 2026-05-06 02:19 | 43.37596 | -80.40692 | 3283 ft | 185 kts | 347° |
| 2026-05-06 02:19 | 43.38807 | -80.41029 | 2895 ft | 195 kts | 348° |
| 2026-05-06 02:19 | 43.40167 | -80.41532 | 2727 ft | 196 kts | 339° |
| 2026-05-06 02:20 | 43.41462 | -80.43680 | 2186 ft | 158 kts | 283° |
| 2026-05-06 02:20 | 43.41618 | -80.45193 | 1995 ft | 148 kts | 277° |
| 2026-05-06 02:20 | 43.41784 | -80.46517 | 1903 ft | 160 kts | 281° |
| 2026-05-06 02:21 | 43.42206 | -80.47984 | 1864 ft | 174 kts | 320° |
| 2026-05-06 02:21 | 43.43271 | -80.47889 | 1748 ft | 180 kts | 75° |
| 2026-05-06 02:21 | 43.43432 | -80.46250 | 1949 ft | 157 kts | 81° |
| 2026-05-06 02:21 | 43.43770 | -80.44867 | 1884 ft | 177 kts | 66° |
| 2026-05-06 02:22 | 43.44270 | -80.43397 | 1704 ft | 145 kts | 64° |
| 2026-05-06 02:22 | 43.44675 | -80.42225 | 1459 ft | 138 kts | 64° |
| 2026-05-06 02:22 | 43.45095 | -80.41003 | 1315 ft | 152 kts | 64° |
| 2026-05-06 02:22 | 43.45529 | -80.39737 | 1151 ft | 140 kts | 65° |
| 2026-05-06 02:23 | 43.45904 | -80.38634 | 1035 ft | 101 kts | 66° |
| 2026-05-06 02:23 | 43.46075 | -80.38137 | 1033 ft | 46 kts | 65° |
| 2026-05-06 02:23 | 43.46128 | -80.37986 | 1033 ft | 19 kts | 65° |
| 2026-05-06 02:23 | 43.46198 | -80.37788 | 1034 ft | 23 kts | 77° |
| 2026-05-06 02:24 | 43.46133 | -80.37690 | 1034 ft | 7 kts | 194° |
| 2026-05-06 02:24 | 43.46125 | -80.37693 | 1034 ft | 0 kts | 197° |
| 2026-05-06 02:25 | 43.46081 | -80.37713 | 1034 ft | 13 kts | 201° |
| 2026-05-06 02:25 | 43.46024 | -80.37811 | 1034 ft | 17 kts | 245° |
| 2026-05-06 02:25 | 43.45974 | -80.37958 | 1034 ft | 15 kts | 244° |
| 2026-05-06 02:26 | 43.45929 | -80.38088 | 1034 ft | 15 kts | 245° |
| 2026-05-06 02:26 | 43.45887 | -80.38211 | 1033 ft | 14 kts | 243° |
| 2026-05-06 02:26 | 43.45847 | -80.38326 | 1033 ft | 13 kts | 246° |
| 2026-05-06 02:26 | 43.45813 | -80.38432 | 1034 ft | 11 kts | 246° |
| 2026-05-06 02:27 | 43.45780 | -80.38524 | 1034 ft | 11 kts | 242° |
| 2026-05-06 02:27 | 43.45747 | -80.38611 | 1034 ft | 10 kts | 243° |
| 2026-05-06 02:27 | 43.45685 | -80.38652 | 1034 ft | 9 kts | 216° |
| 2026-05-06 02:27 | 43.45679 | -80.38658 | 1034 ft | 0 kts | 213° |